NCAR-RAP Real-Time Weather Data

Output produced by METARs form (23 January 2018  15:48 UTC)
found at http://weather.rap.ucar.edu/surface/
 
RJKA 231000Z 01012KT 9999 FEW035 SCT040 16/09 Q1017
RJKA 230900Z 35011KT 9999 FEW035 BKN040 BKN050 16/08 Q1017
RJKA 230800Z 36012KT 9999 FEW030 SCT045 BKN050 16/09 Q1016
RJKA 230700Z 34010KT 9999 FEW040 SCT050 BKN070 17/10 Q1016
RJKA 230600Z 35011KT 9999 FEW040 SCT050 18/08 Q1015
RJKA 230500Z 32010KT 9999 FEW040 BKN050 18/08 Q1015
RJKA 230400Z 30006KT 270V340 9999 FEW045 SCT050 BKN120 20/08 Q1016
RJKA 230300Z 35003KT 300V050 9999 FEW045 BKN050 18/07 Q1016
RJKA 230200Z 34005KT 310V010 9999 FEW045 18/07 Q1017
RJKA 230100Z 35003KT 9999 FEW045 SCT050 18/08 Q1017
RJKA 230000Z VRB01KT 9999 FEW045 BKN050 16/10 Q1018
RJKA 222300Z 33004KT 9999 FEW040 BKN050 14/08 Q1017
RJKA 222200Z 33004KT 9999 FEW040 13/07 Q1017
RJKA 222130Z 35004KT 9999 FEW035 14/08 Q1016
RJKA 221000Z 35012G22KT 9999 FEW030 BKN045 16/09 Q1014
RJKA 220900Z 35014KT 9999 FEW030 BKN045 16/09 Q1013
RJKA 220800Z 35014KT 9999 FEW030 BKN045 17/10 Q1011
RJKA 220700Z 34011KT 310V010 9999 FEW030 BKN040 17/10 Q1011
RJKA 220600Z 34015G25KT 300V020 9999 FEW025 BKN030 18/11 Q1010
RJKA 220500Z 34013G24KT 290V020 9999 FEW020 BKN030 BKN040 19/13 Q1009
RJKA 220400Z 34013KT 310V010 9999 -SHRA FEW020 BKN030 BKN035 19/14 Q1008
RJKA 220300Z 32014G25KT 290V350 9999 FEW020 BKN030 BKN050 19/14 Q1009
RJKA 220200Z 31013KT 280V350 9999 FEW015 SCT025 BKN050 20/16 Q1009
RJKA 220122Z 30013KT 9999 -SHRA FEW010 SCT015 BKN040 19/17 Q1009 RMK 1CU010 3CU015 7CU040 A2982 P/RR
RJKA 220113Z 28015G25KT 260V330 4500 -SHRA FEW010 SCT015 BKN030 19/17 Q1010 RMK 1CU010 4CU015 7CU030 A2983 P/RR
RJKA 220106Z 28015KT 2000 R03/1800U +SHRA FEW010 BKN015 BKN025 20/18 Q1010 RMK 1CU010 5CU015 7CU025 A2983 P/RR
RJKA 220100Z 23018KT 2500 SHRA FEW010 BKN025 BKN030 21/19 Q1009
RJKA 220000Z 21018KT 8000 -SHRA FEW010 SCT015 BKN025 21/19 Q1008
RJKA 212300Z 19019KT 9999 FEW010 BKN015 BKN030 20/18 Q1008
RJKA 212200Z 19021KT 9999 -SHRA FEW013 SCT015 BKN030 20/17 Q1009
RJKA 212130Z 18020KT 9999 FEW015 SCT020 BKN030 20/17 Q1009
RJKA 211000Z 03010KT 9999 FEW025 SCT035 BKN040 17/12 Q1017
RJKA 210900Z 02010KT 9999 FEW025 SCT035 BKN170 17/12 Q1016
RJKA 210800Z 02009KT 9999 FEW040 BKN170 17/11 Q1016
RJKA 210700Z 02007KT 9999 FEW030 BKN035 18/11 Q1016
RJKA 210600Z 04009KT 9999 FEW030 SCT035 18/11 Q1015
RJKA 210500Z 05009KT 9999 FEW030 SCT035 19/11 Q1015
RJKA 210400Z 04009KT 9999 FEW030 SCT035 19/11 Q1016